Time;durP1;ratioP1;P1;durP2;ratioP2;P2;SDS_P1;SDS_P2;PMS_P1;PMS_P2;Temp;Humidity;BMP_temperature;BMP_pressure;BME280_temperature;BME280_humidity;BME280_pressure;Samples;Min_cycle;Max_cycle;Signal;HPM_P1;HPM_P2
2022/01/12 00:01:20;;;;;;;8.37;5.60;;;1.80;99.90;;;;;;5071797;28;20288;-78
2022/01/12 00:03:47;;;;;;;8.07;6.17;;;1.80;99.90;;;;;;5073989;28;20203;-74
2022/01/12 00:06:18;;;;;;;8.93;6.20;;;1.90;99.90;;;;;;5069389;28;20184;-76
2022/01/12 00:08:48;;;;;;;7.10;5.07;;;1.90;99.90;;;;;;5073117;28;20246;-74
2022/01/12 00:11:14;;;;;;;7.87;5.67;;;1.90;99.90;;;;;;5072754;28;20177;-75
2022/01/12 00:13:40;;;;;;;6.73;5.17;;;1.90;99.90;;;;;;5071676;28;20172;-76
2022/01/12 00:16:06;;;;;;;7.10;5.20;;;1.90;99.90;;;;;;5066961;28;20235;-77
2022/01/12 00:18:36;;;;;;;6.77;4.90;;;1.90;99.90;;;;;;5069435;28;20261;-78
2022/01/12 00:21:03;;;;;;;6.70;4.90;;;2.00;99.90;;;;;;5073406;28;20259;-75
2022/01/12 00:23:38;;;;;;;6.33;4.50;;;2.00;99.90;;;;;;5071421;28;20242;-78
2022/01/12 00:26:10;;;;;;;6.67;5.20;;;2.00;99.90;;;;;;5073177;28;20187;-78
2022/01/12 00:34:10;;;;;;;5.80;4.37;;;2.10;99.90;;;;;;5071327;28;20267;-78
2022/01/12 00:36:38;;;;;;;6.77;4.90;;;2.10;99.90;;;;;;5073398;28;20199;-75
2022/01/12 00:39:08;;;;;;;5.87;4.50;;;2.20;99.90;;;;;;5071729;28;20457;-78
2022/01/12 00:41:37;;;;;;;6.20;4.30;;;2.20;99.90;;;;;;5070237;28;20220;-77
2022/01/12 00:44:07;;;;;;;5.47;4.33;;;2.20;99.90;;;;;;5072950;28;20180;-76
2022/01/12 00:46:33;;;;;;;5.87;4.47;;;2.30;99.90;;;;;;5077849;28;20203;-79
2022/01/12 00:49:03;;;;;;;6.17;4.40;;;2.30;99.90;;;;;;5073137;28;20230;-73
2022/01/12 00:51:37;;;;;;;5.70;4.60;;;2.30;99.90;;;;;;5070190;28;20211;-78
2022/01/12 00:54:02;;;;;;;5.90;4.60;;;2.40;99.90;;;;;;5074225;28;20208;-78
2022/01/12 00:56:30;;;;;;;5.97;4.57;;;2.40;99.90;;;;;;5073615;28;20180;-78
2022/01/12 00:58:56;;;;;;;5.27;4.27;;;2.40;99.90;;;;;;5072598;28;20196;-79
2022/01/12 01:01:25;;;;;;;5.53;4.10;;;2.40;99.90;;;;;;5074434;28;20212;-78
2022/01/12 01:03:53;;;;;;;6.07;4.67;;;2.40;99.90;;;;;;5076213;28;20184;-79
2022/01/12 01:06:20;;;;;;;5.60;4.37;;;2.40;99.90;;;;;;5082009;28;20181;-74
2022/01/12 01:08:51;;;;;;;5.97;4.47;;;2.50;99.90;;;;;;5077800;28;20168;-73
2022/01/12 01:11:23;;;;;;;6.90;4.57;;;2.50;99.90;;;;;;5076845;28;20211;-77
2022/01/12 01:13:58;;;;;;;5.73;4.50;;;2.50;99.90;;;;;;5075097;28;20291;-71
2022/01/12 01:16:46;;;;;;;5.90;4.57;;;2.50;99.90;;;;;;5074774;28;20266;-78
2022/01/12 01:27:29;;;;;;;6.13;4.40;;;2.60;99.90;;;;;;5067268;28;20219;-74
2022/01/12 01:29:55;;;;;;;7.10;4.63;;;2.60;99.90;;;;;;5083912;28;20181;-76
2022/01/12 01:32:23;;;;;;;5.60;4.40;;;2.60;99.90;;;;;;5081704;28;20197;-74
2022/01/12 01:34:51;;;;;;;6.03;4.67;;;2.60;99.90;;;;;;5072041;28;20177;-79
2022/01/12 01:37:17;;;;;;;6.00;4.50;;;2.60;99.90;;;;;;5077214;28;20196;-77
2022/01/12 01:39:43;;;;;;;6.63;5.00;;;2.60;99.90;;;;;;5075159;28;20248;-79
2022/01/12 01:42:20;;;;;;;6.43;4.80;;;2.60;99.90;;;;;;5072266;28;20218;-79
2022/01/12 01:55:29;;;;;;;6.90;4.57;;;2.70;99.90;;;;;;5074712;28;20240;-78
2022/01/12 01:57:57;;;;;;;5.57;4.30;;;2.60;99.90;;;;;;5093128;28;20173;-80
2022/01/12 02:00:28;;;;;;;5.73;4.50;;;2.60;99.90;;;;;;5078457;28;20202;-79
2022/01/12 02:02:57;;;;;;;5.47;4.30;;;2.60;99.90;;;;;;5075820;28;20181;-74
2022/01/12 02:05:23;;;;;;;6.03;4.70;;;2.60;99.90;;;;;;5072342;28;20201;-78
2022/01/12 02:07:53;;;;;;;5.63;4.20;;;2.60;99.90;;;;;;5075141;28;20254;-78
2022/01/12 02:10:19;;;;;;;5.70;4.57;;;2.50;99.90;;;;;;5077257;28;20183;-78
2022/01/12 02:12:47;;;;;;;6.00;4.60;;;2.50;99.90;;;;;;5074308;28;20260;-79
2022/01/12 02:15:17;;;;;;;5.60;4.57;;;2.50;99.90;;;;;;5090150;28;20241;-77
2022/01/12 02:17:59;;;;;;;6.87;4.97;;;2.40;99.90;;;;;;5068032;28;20205;-75
2022/01/12 02:37:01;;;;;;;7.07;4.87;;;2.30;99.90;;;;;;5070519;28;20216;-76
2022/01/12 02:42:18;;;;;;;7.50;5.20;;;2.30;99.90;;;;;;5066863;28;20232;-75
2022/01/12 02:53:41;;;;;;;7.60;5.70;;;2.40;99.90;;;;;;5013937;28;20190;-79
2022/01/12 02:56:13;;;;;;;6.87;5.43;;;2.50;99.90;;;;;;5014405;28;20206;-79
2022/01/12 02:58:40;;;;;;;6.73;4.83;;;2.50;99.90;;;;;;5043353;28;20266;-77
2022/01/12 03:03:42;;;;;;;6.73;4.73;;;2.50;99.90;;;;;;5069386;28;20189;-78
2022/01/12 03:06:09;;;;;;;7.67;5.47;;;2.60;99.90;;;;;;5072120;28;20263;-79
2022/01/12 03:08:37;;;;;;;8.00;5.43;;;2.60;99.90;;;;;;5071772;28;20501;-79
2022/01/12 03:11:08;;;;;;;6.97;5.00;;;2.60;99.90;;;;;;5074907;28;20201;-79
2022/01/12 03:13:34;;;;;;;8.47;5.53;;;2.60;99.90;;;;;;5074634;28;20180;-79
2022/01/12 03:16:02;;;;;;;6.67;4.63;;;2.60;99.90;;;;;;5068993;28;20201;-76
2022/01/12 03:18:31;;;;;;;6.63;4.80;;;2.60;99.90;;;;;;5069679;28;20191;-79
2022/01/12 03:20:59;;;;;;;7.93;5.70;;;2.60;99.90;;;;;;5074254;28;20201;-79
2022/01/12 03:23:24;;;;;;;6.73;5.00;;;2.60;99.90;;;;;;5073975;28;20204;-76
2022/01/12 03:25:52;;;;;;;7.30;4.80;;;2.60;99.90;;;;;;5074824;28;20188;-80
2022/01/12 03:28:18;;;;;;;7.93;5.17;;;2.60;99.90;;;;;;5069761;28;20201;-79
2022/01/12 03:38:49;;;;;;;5.80;4.23;;;2.50;99.90;;;;;;5071270;28;20237;-79
2022/01/12 03:41:18;;;;;;;6.13;4.63;;;2.50;99.90;;;;;;5066182;28;20664;-79
2022/01/12 03:43:46;;;;;;;8.70;4.73;;;2.50;99.90;;;;;;5068263;28;20189;-76
2022/01/12 03:46:14;;;;;;;7.90;5.10;;;2.50;99.90;;;;;;5070186;28;20222;-78
2022/01/12 03:48:40;;;;;;;6.40;4.60;;;2.50;99.90;;;;;;5070102;28;20215;-79
2022/01/12 03:51:08;;;;;;;7.60;5.60;;;2.50;99.90;;;;;;5074109;28;20215;-73
2022/01/12 03:53:37;;;;;;;7.57;4.97;;;2.50;99.90;;;;;;5073389;28;20905;-80
2022/01/12 03:56:03;;;;;;;6.97;5.27;;;2.40;99.90;;;;;;5072723;28;20269;-79
2022/01/12 03:58:28;;;;;;;5.70;4.17;;;2.40;99.90;;;;;;5063524;28;20212;-68
2022/01/12 04:00:56;;;;;;;5.40;4.30;;;2.40;99.90;;;;;;5073772;28;20291;-71
2022/01/12 04:03:22;;;;;;;6.67;4.40;;;2.40;99.90;;;;;;5071984;28;20184;-71
2022/01/12 04:08:31;;;;;;;6.77;5.20;;;2.40;99.90;;;;;;5071882;28;20208;-70
2022/01/12 04:11:00;;;;;;;7.27;4.53;;;2.40;99.90;;;;;;5073421;28;20176;-70
2022/01/12 04:13:30;;;;;;;7.40;4.90;;;2.40;99.90;;;;;;5056344;28;20452;-70
2022/01/12 04:16:05;;;;;;;7.50;5.40;;;2.40;99.90;;;;;;5074539;28;20169;-69
2022/01/12 04:18:33;;;;;;;7.53;4.80;;;2.40;99.90;;;;;;5043517;28;20267;-70
2022/01/12 04:21:02;;;;;;;6.33;4.50;;;2.30;99.90;;;;;;5069827;28;20193;-70
2022/01/12 04:23:28;;;;;;;6.40;4.60;;;2.30;99.90;;;;;;5073446;28;20177;-69
2022/01/12 04:25:57;;;;;;;6.50;4.97;;;2.30;99.90;;;;;;5071963;28;20190;-69
2022/01/12 04:28:24;;;;;;;6.10;4.43;;;2.30;99.90;;;;;;5071612;28;20176;-70
2022/01/12 04:30:52;;;;;;;7.63;5.03;;;2.30;99.90;;;;;;5072467;28;20172;-70
2022/01/12 04:33:21;;;;;;;7.07;4.73;;;2.30;99.90;;;;;;5070790;28;20279;-70
2022/01/12 04:35:54;;;;;;;8.47;5.47;;;2.30;99.90;;;;;;5063443;28;20292;-69
2022/01/12 04:38:28;;;;;;;7.53;4.90;;;2.30;99.90;;;;;;5067788;28;20181;-70
2022/01/12 04:40:54;;;;;;;8.20;5.60;;;2.40;99.90;;;;;;5068730;28;20243;-70
2022/01/12 04:43:25;;;;;;;8.03;5.37;;;2.40;99.90;;;;;;5071612;28;20201;-70
2022/01/12 04:50:48;;;;;;;8.00;5.57;;;2.50;99.90;;;;;;5072636;28;20193;-69
2022/01/12 04:53:15;;;;;;;7.57;5.50;;;2.50;99.90;;;;;;5069589;28;20257;-70
2022/01/12 04:55:44;;;;;;;8.37;5.50;;;2.60;99.90;;;;;;5071632;28;20185;-69
2022/01/12 04:58:16;;;;;;;8.43;5.57;;;2.60;99.90;;;;;;5077135;28;20215;-70
2022/01/12 05:00:45;;;;;;;8.03;5.00;;;2.60;99.90;;;;;;5072615;28;20283;-68
2022/01/12 05:14:00;;;;;;;6.27;4.97;;;2.60;99.90;;;;;;5071490;28;20183;-66
2022/01/12 05:16:30;;;;;;;8.00;5.73;;;2.60;99.90;;;;;;5070966;28;20403;-71
2022/01/12 05:19:04;;;;;;;6.90;5.17;;;2.60;99.90;;;;;;5088418;28;20250;-70
2022/01/12 05:21:32;;;;;;;7.17;4.83;;;2.70;99.90;;;;;;5071920;28;20207;-67
2022/01/12 05:24:06;;;;;;;8.17;5.17;;;2.70;99.90;;;;;;5072326;28;20177;-71
2022/01/12 05:26:32;;;;;;;7.33;4.87;;;2.70;99.90;;;;;;5071981;28;20180;-71
2022/01/12 05:28:57;;;;;;;6.33;4.83;;;2.70;99.90;;;;;;5070714;28;20477;-72
2022/01/12 05:31:26;;;;;;;8.57;5.20;;;2.70;99.90;;;;;;5068504;28;20284;-71
2022/01/12 05:33:52;;;;;;;6.47;4.73;;;2.80;99.90;;;;;;5065061;28;20222;-71
2022/01/12 05:36:19;;;;;;;8.43;5.13;;;2.80;99.90;;;;;;5073401;28;20197;-71
2022/01/12 05:38:49;;;;;;;7.23;5.03;;;2.80;99.90;;;;;;5072024;28;20208;-70
2022/01/12 05:41:15;;;;;;;7.63;5.07;;;2.90;99.90;;;;;;5072644;28;20196;-69
2022/01/12 05:43:46;;;;;;;8.00;5.20;;;2.90;99.90;;;;;;5072556;28;20180;-71
2022/01/12 05:46:15;;;;;;;7.70;5.50;;;2.90;99.90;;;;;;5073804;28;20169;-70
2022/01/12 05:51:29;;;;;;;8.33;5.20;;;2.90;99.90;;;;;;5069350;28;20235;-71
2022/01/12 05:54:00;;;;;;;7.77;5.50;;;3.00;99.90;;;;;;5075648;28;20204;-71
2022/01/12 05:56:26;;;;;;;10.23;5.73;;;3.00;99.90;;;;;;5069289;28;20188;-71
2022/01/12 05:58:51;;;;;;;9.80;5.73;;;3.00;99.90;;;;;;5092531;28;20180;-71
2022/01/12 06:01:22;;;;;;;8.00;5.30;;;3.00;99.90;;;;;;5075581;28;20210;-70
2022/01/12 06:03:50;;;;;;;9.23;5.40;;;3.00;99.90;;;;;;5071327;28;20207;-69
2022/01/12 06:06:18;;;;;;;6.63;4.70;;;3.00;99.90;;;;;;5070828;28;20222;-71
2022/01/12 06:08:44;;;;;;;5.87;4.50;;;3.10;99.90;;;;;;5064881;28;20235;-70
2022/01/12 06:11:13;;;;;;;7.97;5.03;;;3.10;99.90;;;;;;5072716;28;20177;-71
2022/01/12 06:13:43;;;;;;;6.90;5.03;;;3.10;99.90;;;;;;5074951;28;20184;-67
2022/01/12 06:16:11;;;;;;;7.63;5.23;;;3.10;99.90;;;;;;5069076;28;20185;-69
2022/01/12 06:18:37;;;;;;;6.43;5.00;;;3.20;99.90;;;;;;5074112;28;20299;-71
2022/01/12 06:21:02;;;;;;;6.40;4.50;;;3.20;99.90;;;;;;5075171;28;20259;-70
2022/01/12 06:23:28;;;;;;;10.40;4.50;;;3.20;99.90;;;;;;5075268;28;20193;-71
2022/01/12 06:25:56;;;;;;;5.60;4.30;;;3.20;99.90;;;;;;5075263;28;20173;-70
2022/01/12 06:31:11;;;;;;;8.33;6.37;;;3.30;99.90;;;;;;5059822;28;20177;-70
2022/01/12 06:33:42;;;;;;;6.60;5.20;;;3.30;99.90;;;;;;5072321;28;20171;-71
2022/01/12 06:36:09;;;;;;;8.60;5.80;;;3.30;99.90;;;;;;5071382;28;20204;-66
2022/01/12 06:38:35;;;;;;;7.00;5.43;;;3.30;99.90;;;;;;5074053;28;20373;-72
2022/01/12 06:41:01;;;;;;;6.90;5.30;;;3.30;99.90;;;;;;5072416;28;20240;-72
2022/01/12 06:43:30;;;;;;;7.03;5.40;;;3.20;99.90;;;;;;5077876;28;20175;-72
2022/01/12 06:45:56;;;;;;;6.60;4.87;;;3.20;99.90;;;;;;5073591;28;20186;-72
2022/01/12 06:48:21;;;;;;;7.07;4.93;;;3.20;99.90;;;;;;5073646;28;20219;-72
2022/01/12 06:50:47;;;;;;;7.10;5.07;;;3.20;99.90;;;;;;5074497;28;20200;-73
2022/01/12 06:53:13;;;;;;;6.20;4.70;;;3.20;99.90;;;;;;5074865;28;20191;-72
2022/01/12 06:55:39;;;;;;;6.97;5.10;;;3.10;99.90;;;;;;5074436;28;20177;-70
2022/01/12 06:58:04;;;;;;;7.97;5.83;;;3.10;99.90;;;;;;5074296;28;20181;-71
2022/01/12 07:00:30;;;;;;;8.23;5.90;;;3.10;99.90;;;;;;5073896;28;20204;-70
2022/01/12 07:02:56;;;;;;;8.27;5.50;;;3.10;99.90;;;;;;5072478;28;20177;-72
2022/01/12 07:05:21;;;;;;;6.87;5.13;;;3.10;99.90;;;;;;5074533;28;20169;-67
2022/01/12 07:07:47;;;;;;;8.07;5.93;;;3.10;99.90;;;;;;5074534;28;20185;-73
2022/01/12 07:10:15;;;;;;;8.40;5.50;;;3.10;99.90;;;;;;5071135;28;20176;-71
2022/01/12 07:12:40;;;;;;;7.53;5.50;;;3.10;99.90;;;;;;5071782;28;20205;-69
2022/01/12 07:15:09;;;;;;;7.20;5.23;;;3.10;99.90;;;;;;5079124;28;20200;-73
2022/01/12 07:17:34;;;;;;;7.30;5.20;;;3.20;99.90;;;;;;5073020;28;20188;-73
2022/01/12 07:20:02;;;;;;;7.13;4.87;;;3.20;99.90;;;;;;5073155;28;20194;-71
2022/01/12 07:22:29;;;;;;;6.20;4.80;;;3.20;99.90;;;;;;5076329;28;20226;-72
2022/01/12 07:24:57;;;;;;;7.20;4.43;;;3.20;99.90;;;;;;5076977;28;20200;-71
2022/01/12 07:27:25;;;;;;;6.03;4.80;;;3.20;99.90;;;;;;5073776;28;20234;-71
2022/01/12 07:29:51;;;;;;;6.10;4.80;;;3.30;99.90;;;;;;5073244;28;20185;-70
2022/01/12 07:32:16;;;;;;;7.83;5.40;;;3.30;99.90;;;;;;5077991;28;20237;-72
2022/01/12 07:34:42;;;;;;;6.40;4.87;;;3.30;99.90;;;;;;5071925;28;20260;-69
2022/01/12 07:37:10;;;;;;;6.43;5.13;;;3.30;99.90;;;;;;5071684;28;20193;-71
2022/01/12 07:39:38;;;;;;;6.80;4.80;;;3.30;99.90;;;;;;5059589;28;20233;-69
2022/01/12 07:42:04;;;;;;;6.13;4.80;;;3.30;99.90;;;;;;5072267;28;20280;-71
2022/01/12 07:44:32;;;;;;;7.47;4.80;;;3.30;99.90;;;;;;5073318;28;20232;-70
2022/01/12 07:46:58;;;;;;;6.93;4.83;;;3.30;99.90;;;;;;5092170;28;20187;-72
2022/01/12 07:49:26;;;;;;;7.70;5.77;;;3.30;99.90;;;;;;5080414;28;20177;-71
2022/01/12 07:51:51;;;;;;;6.87;5.53;;;3.30;99.90;;;;;;5073351;28;20241;-68
2022/01/12 07:54:19;;;;;;;7.93;5.23;;;3.30;99.90;;;;;;5071328;28;20287;-70
2022/01/12 07:56:45;;;;;;;7.13;5.33;;;3.30;99.90;;;;;;5075522;28;20267;-69
2022/01/12 07:59:14;;;;;;;9.10;6.10;;;3.30;99.90;;;;;;5086047;28;20204;-71
2022/01/12 08:01:39;;;;;;;7.67;5.63;;;3.30;99.90;;;;;;5072998;28;20193;-71
2022/01/12 08:04:05;;;;;;;6.73;5.33;;;3.40;99.90;;;;;;5072724;28;20268;-72
2022/01/12 08:06:33;;;;;;;7.93;5.20;;;3.40;99.90;;;;;;5073369;28;20234;-71
2022/01/12 08:08:58;;;;;;;8.20;6.00;;;3.40;99.90;;;;;;5068113;28;20184;-71
2022/01/12 08:11:26;;;;;;;7.37;5.63;;;3.40;99.90;;;;;;5078067;28;20172;-71
2022/01/12 08:13:54;;;;;;;6.70;5.20;;;3.40;99.90;;;;;;5068838;28;20181;-71
2022/01/12 08:16:20;;;;;;;7.60;5.40;;;3.40;99.90;;;;;;5071408;28;20189;-71
2022/01/12 08:18:48;;;;;;;8.30;5.90;;;3.40;99.90;;;;;;5066596;28;20279;-72
2022/01/12 08:21:16;;;;;;;9.07;6.63;;;3.40;99.90;;;;;;5073813;28;20215;-71
2022/01/12 08:23:43;;;;;;;8.50;5.80;;;3.40;99.90;;;;;;5064357;28;20191;-71
2022/01/12 08:26:09;;;;;;;6.87;5.33;;;3.50;99.90;;;;;;5070564;28;20191;-72
2022/01/12 08:28:35;;;;;;;7.77;5.97;;;3.50;99.90;;;;;;5074183;28;20177;-70
2022/01/12 08:31:03;;;;;;;8.20;5.93;;;3.50;99.90;;;;;;5071191;28;20212;-72
2022/01/12 08:33:32;;;;;;;7.50;5.73;;;3.60;99.90;;;;;;5073137;28;20196;-72
2022/01/12 08:35:57;;;;;;;7.87;5.63;;;3.60;99.90;;;;;;5071517;28;20211;-72
2022/01/12 08:38:25;;;;;;;8.10;6.00;;;3.60;99.90;;;;;;5072158;28;20184;-70
2022/01/12 08:40:51;;;;;;;8.40;5.93;;;3.60;99.90;;;;;;5071094;28;20203;-72
2022/01/12 08:43:16;;;;;;;9.27;5.60;;;3.70;99.90;;;;;;5072710;28;20183;-70
2022/01/12 08:45:44;;;;;;;8.23;5.53;;;3.70;99.90;;;;;;5068847;28;20174;-71
2022/01/12 08:48:10;;;;;;;8.80;5.70;;;3.70;99.90;;;;;;5070213;28;20478;-71
2022/01/12 08:50:38;;;;;;;8.00;5.60;;;3.70;99.90;;;;;;5072231;28;20517;-71
2022/01/12 08:53:06;;;;;;;8.07;5.77;;;3.80;99.90;;;;;;5073790;28;20188;-74
2022/01/12 08:55:32;;;;;;;7.83;5.67;;;3.80;99.90;;;;;;5072345;28;20191;-70
2022/01/12 08:57:58;;;;;;;8.73;5.73;;;3.90;99.90;;;;;;5071058;28;20267;-70
2022/01/12 09:00:28;;;;;;;7.23;6.00;;;3.90;99.90;;;;;;5072149;28;20185;-72
2022/01/12 09:02:54;;;;;;;7.57;5.43;;;4.00;99.90;;;;;;5069290;28;20212;-69
2022/01/12 09:05:19;;;;;;;7.97;5.90;;;4.00;99.90;;;;;;5072305;28;20215;-73
2022/01/12 09:07:45;;;;;;;9.73;6.00;;;4.00;99.90;;;;;;5072483;28;20208;-70
2022/01/12 09:10:11;;;;;;;9.60;5.40;;;4.00;99.90;;;;;;5074153;28;20267;-73
2022/01/12 09:12:37;;;;;;;9.00;6.03;;;4.10;99.90;;;;;;5070309;28;20200;-70
2022/01/12 09:15:06;;;;;;;9.10;6.23;;;4.00;99.90;;;;;;5070240;28;20238;-68
2022/01/12 09:17:32;;;;;;;9.07;6.17;;;4.10;99.90;;;;;;5069839;28;20200;-70
2022/01/12 09:19:57;;;;;;;8.33;6.03;;;4.10;99.90;;;;;;5071337;28;20204;-72
2022/01/12 09:22:24;;;;;;;7.70;5.07;;;4.10;99.90;;;;;;5061201;28;20213;-65
2022/01/12 09:24:50;;;;;;;7.27;5.53;;;4.20;99.90;;;;;;5069595;28;20174;-71
2022/01/12 09:27:19;;;;;;;7.17;5.23;;;4.20;99.90;;;;;;5073936;28;20239;-69
2022/01/12 09:29:46;;;;;;;8.73;4.67;;;4.30;99.90;;;;;;5067864;28;20184;-68
2022/01/12 09:32:16;;;;;;;7.67;5.27;;;4.30;99.90;;;;;;5075076;28;20227;-70
2022/01/12 09:34:42;;;;;;;7.53;5.47;;;4.40;99.90;;;;;;5070276;28;20216;-71
2022/01/12 09:37:08;;;;;;;6.30;5.00;;;4.40;99.90;;;;;;5072784;28;20177;-69
2022/01/12 09:39:36;;;;;;;7.40;5.40;;;4.50;99.90;;;;;;5071215;28;20242;-72
2022/01/12 09:42:03;;;;;;;9.50;6.33;;;4.60;99.90;;;;;;5074575;28;20199;-69
2022/01/12 09:44:34;;;;;;;8.20;6.50;;;4.60;99.90;;;;;;5075114;28;20188;-71
2022/01/12 09:47:01;;;;;;;7.47;5.90;;;4.60;99.90;;;;;;5078223;28;20173;-69
2022/01/12 09:49:28;;;;;;;6.73;5.27;;;4.70;99.90;;;;;;5062163;28;20187;-71
2022/01/12 09:51:55;;;;;;;8.10;5.50;;;4.70;99.90;;;;;;5076979;28;20192;-68
2022/01/12 09:54:21;;;;;;;6.67;5.10;;;4.70;99.90;;;;;;5072446;28;20181;-71
2022/01/12 09:56:47;;;;;;;6.50;5.00;;;4.80;99.90;;;;;;5072204;28;20290;-72
2022/01/12 09:59:14;;;;;;;7.07;5.10;;;4.80;99.90;;;;;;5063417;28;20200;-70
2022/01/12 10:01:45;;;;;;;8.70;5.10;;;4.80;99.90;;;;;;5072677;28;20188;-68
2022/01/12 10:04:16;;;;;;;7.30;5.20;;;4.90;99.90;;;;;;5075034;28;20188;-68
2022/01/12 10:07:07;;;;;;;5.77;4.90;;;5.00;99.90;;;;;;5074076;28;20327;-69
2022/01/12 10:09:43;;;;;;;7.17;5.33;;;5.00;99.90;;;;;;5075153;28;20223;-70
2022/01/12 10:12:16;;;;;;;6.87;5.27;;;5.00;99.90;;;;;;5074940;28;20183;-67
2022/01/12 10:14:48;;;;;;;10.90;6.20;;;5.10;99.90;;;;;;5072713;28;20177;-68
2022/01/12 10:17:14;;;;;;;8.47;6.07;;;5.10;99.90;;;;;;5074617;28;20180;-72
2022/01/12 10:19:47;;;;;;;8.20;6.47;;;5.10;99.90;;;;;;5073194;28;20177;-67
2022/01/12 10:22:15;;;;;;;9.60;6.63;;;5.10;99.90;;;;;;5074534;28;20196;-69
2022/01/12 10:24:44;;;;;;;7.53;6.07;;;5.10;99.90;;;;;;5074864;28;20246;-69
2022/01/12 10:27:12;;;;;;;9.83;6.50;;;5.10;99.90;;;;;;5073560;28;20176;-68
2022/01/12 10:29:37;;;;;;;7.23;6.17;;;5.20;99.90;;;;;;5074075;28;20204;-68
2022/01/12 10:32:10;;;;;;;8.03;5.83;;;5.20;99.90;;;;;;5073960;28;20204;-70
2022/01/12 10:34:43;;;;;;;9.60;6.97;;;5.20;99.90;;;;;;5074309;28;20267;-70
2022/01/12 10:37:16;;;;;;;9.50;6.90;;;5.20;99.90;;;;;;5075291;28;20258;-70
2022/01/12 10:39:48;;;;;;;10.47;7.30;;;5.20;99.90;;;;;;5074297;28;20211;-72
2022/01/12 10:42:19;;;;;;;9.43;6.27;;;5.20;99.90;;;;;;5080890;28;20609;-70
2022/01/12 10:44:49;;;;;;;8.13;6.30;;;5.20;99.90;;;;;;5065962;28;20170;-72
2022/01/12 10:47:21;;;;;;;9.40;6.73;;;5.20;99.90;;;;;;5074682;28;20276;-68
2022/01/12 10:50:04;;;;;;;6.67;5.53;;;5.20;99.90;;;;;;5074203;28;20188;-74
2022/01/12 10:52:34;;;;;;;9.03;5.80;;;5.30;99.90;;;;;;5068227;28;20181;-71
2022/01/12 10:55:04;;;;;;;7.97;5.90;;;5.30;99.90;;;;;;5072154;28;20187;-69
2022/01/12 10:57:32;;;;;;;7.20;5.60;;;5.30;99.90;;;;;;5073391;28;20183;-69
2022/01/12 11:00:09;;;;;;;7.30;5.37;;;5.40;99.90;;;;;;5074195;28;20195;-71
2022/01/12 11:02:38;;;;;;;8.37;5.67;;;5.40;99.90;;;;;;5071886;28;20211;-71
2022/01/12 11:05:05;;;;;;;7.60;5.40;;;5.50;99.90;;;;;;5067002;28;20231;-72
2022/01/12 11:07:31;;;;;;;9.70;6.80;;;5.50;99.90;;;;;;5071003;28;20181;-71
2022/01/12 11:09:59;;;;;;;9.43;6.70;;;5.50;99.90;;;;;;5073851;28;20192;-71
2022/01/12 11:12:30;;;;;;;8.70;6.73;;;5.60;99.90;;;;;;5076652;28;20198;-66
2022/01/12 11:14:58;;;;;;;8.73;6.83;;;5.60;99.90;;;;;;5068385;28;20188;-72
2022/01/12 11:17:23;;;;;;;8.47;5.90;;;5.60;99.90;;;;;;5073913;28;20184;-71
2022/01/12 11:20:11;;;;;;;8.57;6.50;;;5.60;99.90;;;;;;5069368;28;20177;-72
2022/01/12 11:23:08;;;;;;;7.43;5.87;;;5.60;99.90;;;;;;5071472;28;20298;-69
2022/01/12 11:25:39;;;;;;;8.60;6.37;;;5.60;99.90;;;;;;5071738;28;20392;-73
2022/01/12 11:28:10;;;;;;;8.67;6.73;;;5.60;99.90;;;;;;5073588;28;20180;-70
2022/01/12 11:30:38;;;;;;;8.60;6.70;;;5.60;99.90;;;;;;5079935;28;20180;-71
2022/01/12 11:33:14;;;;;;;8.83;6.37;;;5.60;99.90;;;;;;5077085;28;20191;-67
2022/01/12 11:35:45;;;;;;;8.83;6.30;;;5.60;99.90;;;;;;5067030;28;20212;-69
2022/01/12 11:38:27;;;;;;;8.10;6.10;;;5.60;99.90;;;;;;5070211;28;20180;-71
2022/01/12 11:41:12;;;;;;;8.57;5.97;;;5.60;99.90;;;;;;5071775;28;20201;-70
2022/01/12 11:43:45;;;;;;;7.30;5.70;;;5.70;99.90;;;;;;5070125;28;20212;-70
2022/01/12 11:46:15;;;;;;;6.87;5.50;;;5.70;99.90;;;;;;5066378;28;20199;-69
2022/01/12 11:48:48;;;;;;;8.43;6.10;;;5.70;99.90;;;;;;5084995;28;20187;-69
2022/01/12 11:51:19;;;;;;;7.80;6.10;;;5.70;99.90;;;;;;5075683;28;20196;-69
2022/01/12 11:53:53;;;;;;;8.63;6.03;;;5.70;99.90;;;;;;5070995;28;20219;-67
2022/01/12 11:56:26;;;;;;;7.17;5.47;;;5.70;99.90;;;;;;5074560;28;20180;-69
2022/01/12 11:58:58;;;;;;;8.50;6.10;;;5.70;99.90;;;;;;5085908;28;20200;-71
2022/01/12 12:01:36;;;;;;;7.73;6.10;;;5.70;99.90;;;;;;5071909;28;20215;-73
2022/01/12 12:04:06;;;;;;;8.73;6.10;;;5.70;99.90;;;;;;5073660;28;20164;-69
2022/01/12 12:06:32;;;;;;;7.17;5.50;;;5.80;99.90;;;;;;5070142;28;20195;-71
2022/01/12 12:09:10;;;;;;;7.43;5.33;;;5.80;99.90;;;;;;5069308;28;20184;-70
2022/01/12 12:11:38;;;;;;;7.23;5.47;;;5.80;99.90;;;;;;5073199;28;20184;-71
2022/01/12 12:14:09;;;;;;;7.50;5.60;;;5.80;99.90;;;;;;5070657;28;20173;-71
2022/01/12 12:16:38;;;;;;;7.37;5.40;;;5.80;99.90;;;;;;5078281;28;20228;-66
2022/01/12 12:19:11;;;;;;;7.77;4.83;;;5.90;99.90;;;;;;5071700;28;20203;-71
2022/01/12 12:21:37;;;;;;;8.03;5.53;;;5.90;99.90;;;;;;5063180;28;20196;-70
2022/01/12 12:24:15;;;;;;;7.53;5.57;;;5.90;99.90;;;;;;5070573;28;20180;-72
2022/01/12 12:26:54;;;;;;;7.23;5.53;;;5.90;99.90;;;;;;5072681;28;20259;-69
2022/01/12 12:29:28;;;;;;;7.03;4.93;;;6.00;99.90;;;;;;5063684;28;20242;-76
2022/01/12 12:32:00;;;;;;;7.50;5.40;;;6.00;99.90;;;;;;5083589;28;20195;-75
2022/01/12 12:34:29;;;;;;;7.13;5.53;;;6.00;99.90;;;;;;5067797;28;20181;-76
2022/01/12 12:37:08;;;;;;;10.50;5.90;;;6.00;99.90;;;;;;5066298;28;20184;-81
2022/01/12 12:39:42;;;;;;;8.57;5.67;;;6.00;99.90;;;;;;5067415;28;20176;-75
2022/01/12 12:42:20;;;;;;;9.97;5.90;;;6.00;99.90;;;;;;5071635;28;20207;-80
2022/01/12 12:44:55;;;;;;;8.57;5.40;;;6.00;99.90;;;;;;5071236;28;20446;-75
2022/01/12 12:47:21;;;;;;;9.60;5.87;;;6.00;99.90;;;;;;5071728;28;20192;-73
2022/01/12 12:49:58;;;;;;;9.23;5.57;;;5.90;99.90;;;;;;5069028;28;20349;-76
2022/01/12 12:52:33;;;;;;;7.27;5.43;;;5.90;99.90;;;;;;5071320;28;20180;-74
2022/01/12 12:55:24;;;;;;;9.07;5.17;;;5.90;99.90;;;;;;5069793;28;20179;-78
2022/01/12 12:57:54;;;;;;;8.93;5.50;;;5.90;99.90;;;;;;5077084;28;20176;-77
2022/01/12 13:00:24;;;;;;;9.77;5.00;;;5.90;99.90;;;;;;5071701;28;20172;-74
2022/01/12 13:02:53;;;;;;;8.20;5.73;;;5.90;99.90;;;;;;5076421;28;20184;-73
2022/01/12 13:05:28;;;;;;;9.00;5.57;;;5.90;99.90;;;;;;5075805;28;20259;-74
2022/01/12 13:07:54;;;;;;;8.23;5.47;;;6.00;99.90;;;;;;5072607;28;20187;-80
2022/01/12 13:10:28;;;;;;;11.30;6.63;;;6.00;99.90;;;;;;5075837;28;20255;-79
2022/01/12 13:13:01;;;;;;;13.07;6.73;;;6.00;99.90;;;;;;5075985;28;20200;-78
2022/01/12 13:15:40;;;;;;;12.17;7.03;;;6.00;99.90;;;;;;5076995;28;20176;-78
2022/01/12 13:18:10;;;;;;;11.27;6.30;;;6.00;99.90;;;;;;5073792;28;20165;-85
2022/01/12 13:23:36;;;;;;;12.27;7.03;;;6.00;99.90;;;;;;5077049;28;20175;-76
2022/01/12 13:26:06;;;;;;;13.10;7.30;;;6.00;99.90;;;;;;5076255;28;20175;-72
2022/01/12 13:28:36;;;;;;;12.87;6.50;;;6.00;99.90;;;;;;5075826;28;20168;-70
2022/01/12 13:31:07;;;;;;;14.83;7.50;;;6.00;99.90;;;;;;5075619;28;20237;-73
2022/01/12 13:33:46;;;;;;;11.57;6.97;;;6.00;99.90;;;;;;5074743;28;20267;-72
2022/01/12 13:36:15;;;;;;;12.43;6.57;;;6.00;99.90;;;;;;5074556;28;20188;-83
2022/01/12 13:38:44;;;;;;;11.00;6.40;;;5.90;99.90;;;;;;5086465;28;20196;-77
2022/01/12 13:41:15;;;;;;;13.50;6.73;;;6.00;99.90;;;;;;5080369;28;20200;-76
2022/01/12 13:43:47;;;;;;;12.07;6.00;;;6.00;99.90;;;;;;5070725;28;20181;-71
2022/01/12 13:46:17;;;;;;;11.40;6.20;;;6.00;99.90;;;;;;5064703;28;20177;-71
2022/01/12 13:49:37;;;;;;;9.53;6.07;;;6.10;99.90;;;;;;5069616;28;20176;-74
2022/01/12 13:51:39;;;;;;;10.03;5.60;;;6.00;99.90;;;;;;5058978;28;20193;-75
2022/01/12 13:54:11;;;;;;;8.03;5.87;;;6.10;99.90;;;;;;5073688;28;20237;-78
2022/01/12 13:56:42;;;;;;;8.53;5.83;;;6.10;99.90;;;;;;5073536;28;20419;-76
2022/01/12 13:59:09;;;;;;;9.07;5.77;;;6.10;99.90;;;;;;5072688;28;20185;-77
2022/01/12 14:01:37;;;;;;;9.93;6.17;;;6.10;99.90;;;;;;5072156;28;20292;-73
2022/01/12 14:04:13;;;;;;;9.00;5.63;;;6.00;99.90;;;;;;5064509;28;20224;-74
2022/01/12 14:06:42;;;;;;;8.53;5.90;;;6.00;99.90;;;;;;5075897;28;20180;-71
2022/01/12 14:09:29;;;;;;;8.77;5.77;;;6.10;99.90;;;;;;5073320;28;20173;-72
2022/01/12 14:11:56;;;;;;;10.43;6.30;;;6.10;99.90;;;;;;5074407;28;20191;-72
2022/01/12 14:14:23;;;;;;;9.27;6.03;;;6.10;99.90;;;;;;5070279;28;20176;-76
2022/01/12 14:16:53;;;;;;;9.07;5.70;;;6.10;99.90;;;;;;5072131;28;20189;-75
2022/01/12 14:19:21;;;;;;;8.33;5.50;;;6.10;99.90;;;;;;5082699;28;20168;-74
2022/01/12 14:22:00;;;;;;;11.50;6.97;;;6.10;99.90;;;;;;5073271;28;20192;-74
2022/01/12 14:24:25;;;;;;;12.00;7.07;;;6.10;99.90;;;;;;5074321;28;20177;-71
2022/01/12 14:26:52;;;;;;;13.37;7.20;;;6.20;99.90;;;;;;5067416;28;20188;-75
2022/01/12 14:29:20;;;;;;;13.10;7.67;;;6.10;99.90;;;;;;5074702;28;20270;-74
2022/01/12 14:31:58;;;;;;;13.17;7.43;;;6.10;99.90;;;;;;5072929;28;20180;-72
2022/01/12 14:34:23;;;;;;;16.00;8.00;;;6.10;99.90;;;;;;5074752;28;20188;-72
2022/01/12 14:36:49;;;;;;;12.87;7.13;;;6.10;99.90;;;;;;5074347;28;20172;-75